createdAt,value
2023-04-30T00:00:18.911Z,99027.06
2023-04-30T00:01:18.507Z,99029.09
2023-04-30T00:02:18.620Z,99028.99
2023-04-30T00:03:18.652Z,99032.6
2023-04-30T00:04:18.734Z,99025.72
2023-04-30T00:05:18.860Z,99023.14
2023-04-30T00:06:18.611Z,99022.69
2023-04-30T00:07:18.633Z,99027.92
2023-04-30T00:08:18.935Z,99020.02
2023-04-30T00:09:18.671Z,99021.67
2023-04-30T00:10:18.892Z,99022.52
2023-04-30T00:11:18.706Z,99021.42
2023-04-30T00:12:18.855Z,99021.81
2023-04-30T00:13:18.819Z,99021.14
2023-04-30T00:14:18.662Z,99015.16
2023-04-30T00:15:19.123Z,99017.98
2023-04-30T00:16:18.757Z,99014.34
2023-04-30T00:17:18.748Z,99015.03
2023-04-30T00:18:18.717Z,99014.89
2023-04-30T00:19:18.814Z,99014.17
2023-04-30T00:20:18.814Z,99012.56
2023-04-30T00:21:18.960Z,99012.28
2023-04-30T00:22:19.025Z,99007.32
2023-04-30T00:23:19.031Z,99004.93
2023-04-30T00:24:18.886Z,99003.02
2023-04-30T00:25:18.921Z,98998.04
2023-04-30T00:26:19.187Z,98999.36
2023-04-30T00:27:18.938Z,98999.17
2023-04-30T00:28:18.939Z,98995.25
2023-04-30T00:29:18.968Z,98994.16
2023-04-30T00:30:18.951Z,98995.45
2023-04-30T00:31:19.197Z,98986.31
2023-04-30T00:32:19.039Z,98990.16
2023-04-30T00:33:18.986Z,98982.47
2023-04-30T00:34:19.059Z,98987.22
2023-04-30T00:35:19.052Z,98975.63
2023-04-30T00:36:19.004Z,98982.69
2023-04-30T00:37:19.106Z,98982.78
2023-04-30T00:38:19.056Z,98976.48
2023-04-30T00:39:19.099Z,98980.11
2023-04-30T00:40:20.009Z,98974.98
2023-04-30T00:41:20.915Z,98976.38
2023-04-30T00:42:19.185Z,98967.61
2023-04-30T00:43:19.359Z,98974.23
2023-04-30T00:44:19.163Z,98975.27
2023-04-30T00:45:19.230Z,98968.76
2023-04-30T00:46:19.272Z,98970.86
2023-04-30T00:47:19.688Z,98971.45
2023-04-30T00:48:19.300Z,98966.04
2023-04-30T00:49:19.272Z,98968.05
2023-04-30T00:50:19.752Z,98973.88
2023-04-30T00:51:19.959Z,98974.09
2023-04-30T00:52:20.443Z,98971.89
2023-04-30T00:53:19.974Z,98974.19
2023-04-30T00:54:20.802Z,98976.27
2023-04-30T00:55:19.780Z,98975.17
2023-04-30T00:56:19.340Z,98973.94
2023-04-30T00:57:20.172Z,98974.34
2023-04-30T00:58:19.825Z,98973.4
2023-04-30T00:59:19.430Z,98974.86
2023-04-30T01:00:19.796Z,98975.66
2023-04-30T01:01:19.738Z,98975.28
2023-04-30T01:02:19.783Z,98978.29
2023-04-30T01:03:20.273Z,98970.41
2023-04-30T01:04:20.237Z,98971.55
2023-04-30T01:05:19.742Z,98970.55
2023-04-30T01:06:19.561Z,98965.31
2023-04-30T01:07:19.755Z,98967.04
2023-04-30T01:08:19.754Z,98966.58
2023-04-30T01:09:19.759Z,98963.72
2023-04-30T01:10:19.564Z,98960.84
2023-04-30T01:14:28.807Z,98952.77
2023-04-30T01:15:33.279Z,98949.55
2023-04-30T01:16:33.081Z,98951.73
2023-04-30T01:17:44.126Z,98951.64
2023-04-30T01:18:39.692Z,98952.05
2023-04-30T01:19:44.915Z,98949
2023-04-30T01:20:32.015Z,98950.25
2023-04-30T01:21:32.420Z,98952.41
2023-04-30T01:28:50.427Z,98930.08
2023-04-30T01:29:50.512Z,98931.77
2023-04-30T01:30:49.953Z,98927.55
2023-04-30T01:31:49.633Z,98932.94
2023-04-30T01:32:49.573Z,98923.99
2023-04-30T01:33:49.624Z,98928.89
2023-04-30T01:34:49.582Z,98930.52
2023-04-30T01:43:19.461Z,98926.38
2023-04-30T01:51:42.195Z,98915.66
2023-04-30T01:53:41.667Z,98908.77
2023-04-30T01:55:48.441Z,98910.8
2023-04-30T01:56:48.709Z,98903.88
2023-04-30T01:57:52.330Z,98905.39
2023-04-30T01:58:49.587Z,98904.61
2023-04-30T01:59:48.792Z,98906.02
2023-04-30T02:00:48.595Z,98905.95
2023-04-30T02:01:48.647Z,98901.28
2023-04-30T02:02:48.686Z,98897.62
2023-04-30T02:03:48.690Z,98895.41
2023-04-30T02:04:48.641Z,98897.1
2023-04-30T02:05:49.562Z,98896.49
2023-04-30T02:06:48.718Z,98895.92
2023-04-30T02:07:49.746Z,98882.49
2023-04-30T02:08:48.698Z,98884.36
2023-04-30T02:09:48.721Z,98882.12
2023-04-30T02:10:48.734Z,98877.2
2023-04-30T02:11:48.773Z,98873.48
2023-04-30T02:12:48.803Z,98868.66
2023-04-30T02:13:48.792Z,98864.19
2023-04-30T02:14:48.818Z,98865.19
2023-04-30T02:15:48.867Z,98863.97
2023-04-30T02:16:48.826Z,98868.59
2023-04-30T02:17:48.904Z,98865.56
2023-04-30T02:18:48.883Z,98863.12
2023-04-30T02:19:48.904Z,98875.34
2023-04-30T02:20:48.927Z,98865.05
2023-04-30T02:21:48.925Z,98863.7
2023-04-30T02:22:49.878Z,98857.77
2023-04-30T02:23:49.742Z,98853.5
2023-04-30T02:24:49.621Z,98862.52
2023-04-30T02:25:49.627Z,98866.12
2023-04-30T02:26:49.651Z,98860.48
2023-04-30T02:27:49.686Z,98857.28
2023-04-30T02:28:49.671Z,98855.38
2023-04-30T02:29:50.079Z,98856.15
2023-04-30T02:30:49.693Z,98856.7
2023-04-30T02:31:49.739Z,98852.18
2023-04-30T02:32:49.859Z,98850
2023-04-30T02:33:49.763Z,98854.27
2023-04-30T02:34:50.134Z,98856.88
2023-04-30T02:35:49.776Z,98852.91
2023-04-30T02:36:49.848Z,98860.97
2023-04-30T02:37:49.826Z,98863.54
2023-04-30T02:38:49.872Z,98864.22
2023-04-30T02:39:50.077Z,98865.86
2023-04-30T02:40:49.877Z,98870.59
2023-04-30T02:41:49.898Z,98868.92
2023-04-30T02:42:49.916Z,98875.52
2023-04-30T02:43:49.924Z,98877.38
2023-04-30T02:44:49.930Z,98875.12
2023-04-30T02:45:50.019Z,98869.2
2023-04-30T02:46:50.215Z,98873.9
2023-04-30T02:47:50.038Z,98880.53
2023-04-30T02:48:50.020Z,98872.46
2023-04-30T02:49:50.007Z,98872.52
2023-04-30T02:50:50.040Z,98876.1
2023-04-30T02:51:50.037Z,98875.75
2023-04-30T02:52:50.066Z,98873.97
2023-04-30T02:53:50.107Z,98877.45
2023-04-30T02:54:50.094Z,98875.05
2023-04-30T02:55:50.090Z,98874.61
2023-04-30T02:56:50.259Z,98879.57
2023-04-30T02:57:50.131Z,98878.05
2023-04-30T02:58:50.233Z,98876.09
2023-04-30T02:59:50.161Z,98866.73
2023-04-30T03:00:50.173Z,98876.77
2023-04-30T03:01:50.330Z,98874.91
2023-04-30T03:02:50.828Z,98870.3
2023-04-30T03:03:50.766Z,98872.64
2023-04-30T03:04:50.741Z,98875.51
2023-04-30T03:05:50.951Z,98875.31
2023-04-30T03:06:50.818Z,98874.41
2023-04-30T03:07:50.782Z,98873.1
2023-04-30T03:08:50.841Z,98869.86
2023-04-30T03:09:50.994Z,98878.05
2023-04-30T03:10:50.847Z,98869.44
2023-04-30T03:11:50.888Z,98876.27
2023-04-30T03:12:50.887Z,98865.98
2023-04-30T03:13:51.102Z,98864.51
2023-04-30T03:14:50.939Z,98874.88
2023-04-30T03:15:56.515Z,98879.28
2023-04-30T03:16:52.871Z,98880.84
2023-04-30T03:17:52.963Z,98879.72
2023-04-30T03:18:52.913Z,98875.59
2023-04-30T03:19:53.076Z,98874.39
2023-04-30T03:20:52.946Z,98876.38
2023-04-30T03:21:52.950Z,98877.75
2023-04-30T03:22:52.950Z,98875.8
2023-04-30T03:23:52.996Z,98883.95
2023-04-30T03:24:52.975Z,98879.7
2023-04-30T03:25:53.256Z,98880.94
2023-04-30T03:26:53.019Z,98882.4
2023-04-30T03:27:53.267Z,98880.06
2023-04-30T03:28:53.099Z,98887.07
2023-04-30T03:29:53.259Z,98879.47
2023-04-30T03:30:53.070Z,98873.01
2023-04-30T03:31:53.224Z,98872.69
2023-04-30T03:32:53.165Z,98877.2
2023-04-30T03:33:53.267Z,98881.84
2023-04-30T03:34:53.150Z,98876.65
2023-04-30T03:35:53.156Z,98880.15
2023-04-30T03:36:53.173Z,98875.09
2023-04-30T03:37:53.439Z,98872.08
2023-04-30T03:38:53.215Z,98871.77
2023-04-30T03:39:53.574Z,98877.05
2023-04-30T03:40:53.232Z,98881.91
2023-04-30T03:41:53.447Z,98876.13
2023-04-30T03:42:53.294Z,98875.26
2023-04-30T03:43:53.287Z,98870.4
2023-04-30T03:44:53.313Z,98872.8
2023-04-30T03:45:53.365Z,98871.91
2023-04-30T03:46:53.338Z,98879.08
2023-04-30T03:47:53.433Z,98881.41
2023-04-30T03:48:53.373Z,98885.97
2023-04-30T03:49:53.713Z,98886.3
2023-04-30T03:50:53.688Z,98887.06
2023-04-30T03:51:53.430Z,98889.77
2023-04-30T03:52:53.456Z,98895.05
2023-04-30T03:53:53.462Z,98899.89
2023-04-30T03:54:53.523Z,98902.59
2023-04-30T03:55:53.949Z,98907.84
2023-04-30T03:56:53.779Z,98910.56
2023-04-30T03:57:53.763Z,98909.12
2023-04-30T03:58:53.562Z,98907.67
2023-04-30T03:59:54.020Z,98910.77
2023-04-30T04:00:53.794Z,98914.46
2023-04-30T04:01:53.840Z,98913.7
2023-04-30T04:02:54.175Z,98912.62
2023-04-30T04:03:53.726Z,98917.16
2023-04-30T04:04:53.985Z,98920.05
2023-04-30T04:05:53.927Z,98934.38
2023-04-30T04:06:53.702Z,98937.34
2023-04-30T04:07:53.734Z,98937.17
2023-04-30T04:08:53.967Z,98926.67
2023-04-30T04:09:54.034Z,98916.11
2023-04-30T04:10:53.790Z,98909.31
2023-04-30T04:11:53.802Z,98911.78
2023-04-30T04:12:53.797Z,98915.45
2023-04-30T04:13:53.827Z,98912.45
2023-04-30T04:14:53.829Z,98914.42
2023-04-30T04:15:53.841Z,98917.98
2023-04-30T04:16:53.853Z,98921.89
2023-04-30T04:17:53.920Z,98929.19
2023-04-30T04:18:53.895Z,98927.5
2023-04-30T04:19:54.134Z,98934.15
2023-04-30T04:20:54.546Z,98948.58
2023-04-30T04:21:53.940Z,98954.95
2023-04-30T04:22:53.962Z,98964.96
2023-04-30T04:23:53.990Z,98967.41
2023-04-30T04:24:53.984Z,98974.59
2023-04-30T04:25:53.974Z,98973.72
2023-04-30T04:26:54.023Z,98974.08
2023-04-30T04:27:54.048Z,98981.27
2023-04-30T04:28:54.078Z,98984.89
2023-04-30T04:29:54.793Z,98989.79
2023-04-30T04:30:54.090Z,98994.03
2023-04-30T04:31:54.133Z,98996.17
2023-04-30T04:32:54.271Z,99000.25
2023-04-30T04:33:54.123Z,98960.25
2023-04-30T04:34:54.176Z,98962.72
2023-04-30T04:35:54.213Z,98967.88
2023-04-30T04:36:54.168Z,98965.78
2023-04-30T04:37:54.186Z,98962.93
2023-04-30T04:38:54.489Z,98954.8
2023-04-30T04:39:54.622Z,98954.55
2023-04-30T04:40:54.884Z,98958.34
2023-04-30T04:41:54.244Z,98960.92
2023-04-30T04:42:54.239Z,98956.48
2023-04-30T04:43:54.276Z,98954.91
2023-04-30T04:44:54.298Z,98953.03
2023-04-30T04:45:54.350Z,98953.84
2023-04-30T04:46:54.412Z,98956.14
2023-04-30T04:47:54.583Z,98952.25
2023-04-30T04:48:54.347Z,98955
2023-04-30T04:49:54.616Z,98953.02
2023-04-30T04:50:54.405Z,98951.09
2023-04-30T04:51:54.631Z,98946.5
2023-04-30T04:52:54.664Z,98943.31
2023-04-30T04:53:54.468Z,98941.65
2023-04-30T04:54:54.801Z,98945.44
2023-04-30T04:55:54.495Z,98915.47
2023-04-30T04:56:54.576Z,98912.1
2023-04-30T04:57:54.584Z,98913.55
2023-04-30T04:58:54.534Z,98913.36
2023-04-30T04:59:54.954Z,98907.66
2023-04-30T05:00:54.574Z,98907.17
2023-04-30T05:01:54.850Z,98908.23
2023-04-30T05:02:55.183Z,98900.56
2023-04-30T05:03:54.836Z,98914.39
2023-04-30T05:04:54.651Z,98913.48
2023-04-30T05:05:54.955Z,98912.8
2023-04-30T05:06:54.676Z,98916.82
2023-04-30T05:07:54.677Z,98916.08
2023-04-30T05:08:54.672Z,98917.97
2023-04-30T05:09:55.156Z,98915.27
2023-04-30T05:10:54.873Z,98911
2023-04-30T05:11:54.950Z,98906.52
2023-04-30T05:12:54.777Z,98905.83
2023-04-30T05:13:54.767Z,98904.98
2023-04-30T05:14:54.805Z,98907.4
2023-04-30T05:15:54.856Z,98904.86
2023-04-30T05:16:54.834Z,98908.39
2023-04-30T05:17:55.049Z,98906.26
2023-04-30T05:18:54.824Z,98905.94
2023-04-30T05:19:55.301Z,98903.77
2023-04-30T05:20:54.885Z,98903.99
2023-04-30T05:21:54.960Z,98902.39
2023-04-30T05:22:54.901Z,98903.56
2023-04-30T05:23:55.620Z,98900.69
2023-04-30T05:24:54.934Z,98902.47
2023-04-30T05:25:55.003Z,98900.3
2023-04-30T05:26:55.041Z,98907.09
2023-04-30T05:27:55.205Z,98902.44
2023-04-30T05:28:55.001Z,98901.8
2023-04-30T05:29:55.295Z,98897.94
2023-04-30T05:30:55.084Z,98898.65
2023-04-30T05:31:55.157Z,98896.88
2023-04-30T05:32:55.380Z,98895.41
2023-04-30T05:33:55.344Z,98893.41
2023-04-30T05:34:55.346Z,98890.56
2023-04-30T05:35:55.132Z,98892.98
2023-04-30T05:36:55.343Z,98895.89
2023-04-30T05:37:55.156Z,98891.41
2023-04-30T05:38:55.177Z,98892.88
2023-04-30T05:39:55.635Z,98893.23
2023-04-30T05:40:55.204Z,98895.8
2023-04-30T05:41:55.241Z,98897.24
2023-04-30T05:42:55.389Z,98899.12
2023-04-30T05:43:55.249Z,98902.11
2023-04-30T05:44:55.275Z,98893.14
2023-04-30T05:45:55.326Z,98895.9
2023-04-30T05:46:55.314Z,98890.38
2023-04-30T05:47:55.358Z,98888.32
2023-04-30T05:48:55.329Z,98880.41
2023-04-30T05:49:55.611Z,98877.98
2023-04-30T05:50:55.363Z,98882.85
2023-04-30T05:51:55.422Z,98891.36
2023-04-30T05:52:55.434Z,98899.58
2023-04-30T05:53:55.421Z,98898.12
2023-04-30T05:54:55.479Z,98899.23
2023-04-30T05:55:55.471Z,98897.34
2023-04-30T05:56:55.536Z,98895.78
2023-04-30T05:57:55.486Z,98892.11
2023-04-30T05:58:55.493Z,98894.38
2023-04-30T05:59:55.785Z,98892.42
2023-04-30T06:00:55.560Z,98894.86
2023-04-30T06:01:55.723Z,98901.88
2023-04-30T06:02:55.623Z,98900.22
2023-04-30T06:03:55.598Z,98901.22
2023-04-30T06:04:55.660Z,98903.86
2023-04-30T06:05:55.765Z,98906.88
2023-04-30T06:06:55.619Z,98909.77
2023-04-30T06:07:55.621Z,98917.74
2023-04-30T06:08:55.638Z,98916.19
2023-04-30T06:09:56.136Z,98922.62
2023-04-30T06:10:55.930Z,98926.7
2023-04-30T06:11:55.928Z,98925.77
2023-04-30T06:12:55.928Z,98920.84
2023-04-30T06:13:55.967Z,98914.75
2023-04-30T06:14:55.809Z,98919.05
2023-04-30T06:15:55.721Z,98918.94
2023-04-30T06:16:55.816Z,98926.84
2023-04-30T06:17:55.780Z,98923.19
2023-04-30T06:18:55.956Z,98927.58
2023-04-30T06:19:56.096Z,98917.2
2023-04-30T06:20:55.809Z,98919.08
2023-04-30T06:21:55.824Z,98916.12
2023-04-30T06:22:55.846Z,98914.91
2023-04-30T06:23:55.829Z,98912.48
2023-04-30T06:24:55.863Z,98912.34
2023-04-30T06:25:55.976Z,98908.88
2023-04-30T06:26:56.172Z,98912.01
2023-04-30T06:27:55.884Z,98907.33
2023-04-30T06:28:55.934Z,98910.47
2023-04-30T06:29:56.296Z,98913.64
2023-04-30T06:30:56.008Z,98915.64
2023-04-30T06:31:56.073Z,98911.18
2023-04-30T06:32:56.014Z,98913.88
2023-04-30T06:33:56.163Z,98916.86
2023-04-30T06:34:55.965Z,98918.58
2023-04-30T06:35:55.982Z,98917.97
2023-04-30T06:36:56.022Z,98917.66
2023-04-30T06:37:56.001Z,98923.52
2023-04-30T06:38:56.035Z,98931.02
2023-04-30T06:39:56.248Z,98926.12
2023-04-30T06:40:56.192Z,98930.83
2023-04-30T06:41:56.057Z,98930.73
2023-04-30T06:42:56.079Z,98929.58
2023-04-30T06:43:56.070Z,98929.5
2023-04-30T06:44:56.097Z,98929.69
2023-04-30T06:45:56.193Z,98935.8
2023-04-30T06:46:56.099Z,98928.14
2023-04-30T06:47:56.313Z,98927.95
2023-04-30T06:48:56.203Z,98925.51
2023-04-30T06:49:56.462Z,98925.73
2023-04-30T06:50:56.566Z,98932.11
2023-04-30T06:51:56.345Z,98931.25
2023-04-30T06:52:56.227Z,98933.05
2023-04-30T06:53:56.226Z,98935.34
2023-04-30T06:54:56.617Z,98939.46
2023-04-30T06:55:56.424Z,98938.41
2023-04-30T06:56:56.271Z,98934.08
2023-04-30T06:57:56.302Z,98932.89
2023-04-30T06:58:56.285Z,98935.52
2023-04-30T06:59:57.397Z,98934.91
2023-04-30T07:00:56.322Z,98929.59
2023-04-30T07:01:56.367Z,98933.24
2023-04-30T07:02:56.634Z,98937.3
2023-04-30T07:03:56.472Z,98941.12
2023-04-30T07:04:56.362Z,98938.12
2023-04-30T07:05:56.562Z,98940.64
2023-04-30T07:06:56.372Z,98944.69
2023-04-30T07:07:56.808Z,98940
2023-04-30T07:08:56.395Z,98943.81
2023-04-30T07:09:56.891Z,98942.23
2023-04-30T07:10:56.458Z,98937.02
2023-04-30T07:11:57.376Z,98937.87
2023-04-30T07:12:56.488Z,98938.12
2023-04-30T07:13:56.461Z,98934.04
2023-04-30T07:14:56.470Z,98935.81
2023-04-30T07:15:56.711Z,98931.32
2023-04-30T07:16:56.529Z,98938.8
2023-04-30T07:17:56.603Z,98937.52
2023-04-30T07:18:56.580Z,98944.08
2023-04-30T07:19:56.890Z,98945.89
2023-04-30T07:20:56.656Z,98945.31
2023-04-30T07:21:56.585Z,98949.94
2023-04-30T07:22:56.589Z,98948.94
2023-04-30T07:23:56.648Z,98943.28
2023-04-30T07:24:57.057Z,98942.84
2023-04-30T07:25:56.642Z,98946.95
2023-04-30T07:26:56.651Z,98950.56
2023-04-30T07:27:56.653Z,98952.48
2023-04-30T07:28:56.694Z,98954.92
2023-04-30T07:29:56.941Z,98957.06
2023-04-30T07:30:56.692Z,98961.33
2023-04-30T07:31:56.736Z,98964.48
2023-04-30T07:32:56.750Z,98965.64
2023-04-30T07:33:56.757Z,98968.23
2023-04-30T07:34:56.773Z,98964.57
2023-04-30T07:35:56.780Z,98959.28
2023-04-30T07:36:56.775Z,98959.7
2023-04-30T07:37:56.822Z,98956.39
2023-04-30T07:38:56.822Z,98956.77
2023-04-30T07:39:57.029Z,98957.99
2023-04-30T07:40:56.835Z,98952.55
2023-04-30T07:41:56.886Z,98955.66
2023-04-30T07:42:56.858Z,98957.66
2023-04-30T07:43:56.899Z,98961.55
2023-04-30T07:44:56.885Z,98953.57
2023-04-30T07:45:56.919Z,98954.45
2023-04-30T07:46:56.908Z,98955.83
2023-04-30T07:47:57.012Z,98956.7
2023-04-30T07:48:57.027Z,98956.98
2023-04-30T07:49:57.291Z,98963.8
2023-04-30T07:50:56.979Z,98967.3
2023-04-30T07:51:56.998Z,98965.69
2023-04-30T07:52:57.011Z,98965.28
2023-04-30T07:53:57.026Z,98957.81
2023-04-30T07:54:57.442Z,98963
2023-04-30T07:55:57.034Z,98954.33
2023-04-30T07:56:57.082Z,98950.53
2023-04-30T07:57:57.069Z,98952.3
2023-04-30T07:58:57.102Z,98950.56
2023-04-30T07:59:57.296Z,98950
2023-04-30T08:00:57.273Z,98956.41
2023-04-30T08:01:57.154Z,98954.16
2023-04-30T08:02:57.955Z,98951.39
2023-04-30T08:03:57.503Z,98954.34
2023-04-30T08:04:57.124Z,98954.84
2023-04-30T08:05:57.452Z,98961.12
2023-04-30T08:06:57.159Z,98957.34
2023-04-30T08:07:57.409Z,98961.25
2023-04-30T08:08:57.213Z,98964.83
2023-04-30T08:09:57.552Z,98957.81
2023-04-30T08:10:57.223Z,98960.83
2023-04-30T08:11:57.229Z,98970.7
2023-04-30T08:12:57.236Z,98972.81
2023-04-30T08:13:57.304Z,98975.12
2023-04-30T08:15:04.578Z,98974.2
2023-04-30T08:16:00.916Z,98977.34
2023-04-30T08:17:00.897Z,98977.77
2023-04-30T08:18:00.949Z,98974.33
2023-04-30T08:19:00.879Z,98973.05
2023-04-30T08:20:01.503Z,98976.62
2023-04-30T08:21:01.045Z,98976.17
2023-04-30T08:22:00.936Z,98974.97
2023-04-30T08:23:00.883Z,98979.82
2023-04-30T08:24:01.247Z,98978.81
2023-04-30T08:25:00.911Z,98980.64
2023-04-30T08:26:00.916Z,98980.32
2023-04-30T08:27:01.180Z,98976.56
2023-04-30T08:28:00.928Z,98978.36
2023-04-30T08:29:00.970Z,98985.48
2023-04-30T08:30:00.986Z,98981.61
2023-04-30T08:31:00.980Z,98979.86
2023-04-30T08:32:03.173Z,98985.2
2023-04-30T08:33:01.052Z,98983.17
2023-04-30T08:34:01.084Z,98983.12
2023-04-30T08:35:01.044Z,98984.51
2023-04-30T08:36:01.046Z,98986.81
2023-04-30T08:37:01.076Z,98986.52
2023-04-30T08:38:01.072Z,98984.55
2023-04-30T08:39:01.124Z,98983.7
2023-04-30T08:40:01.310Z,98985.48
2023-04-30T08:42:07.992Z,98982.16
2023-04-30T08:43:07.987Z,98980.34
2023-04-30T08:44:06.346Z,98981
2023-04-30T08:45:06.475Z,98981.7
2023-04-30T08:46:07.527Z,98985.88
2023-04-30T08:47:06.810Z,98989.02
2023-04-30T08:48:05.318Z,98987.98
2023-04-30T08:49:05.207Z,98989.11
2023-04-30T08:50:05.690Z,98986.93
2023-04-30T08:51:04.985Z,98990.99
2023-04-30T08:52:05.138Z,98994.19
2023-04-30T08:53:05.088Z,98994.78
2023-04-30T08:54:04.836Z,98994.17
2023-04-30T08:55:07.153Z,98997.14
2023-04-30T08:56:05.508Z,98997.98
2023-04-30T08:57:05.641Z,99000.61
2023-04-30T08:58:04.874Z,98996.05
2023-04-30T08:59:04.906Z,99000.93
2023-04-30T09:00:05.462Z,99003.7
2023-04-30T09:01:07.566Z,99011.03
2023-04-30T09:02:05.659Z,99013.9
2023-04-30T09:03:05.673Z,99022.52
2023-04-30T09:04:07.426Z,99020.34
2023-04-30T09:05:08.335Z,99019.11
2023-04-30T09:06:05.302Z,99021.8
2023-04-30T09:07:07.535Z,99022.2
2023-04-30T09:08:06.715Z,99021.95
2023-04-30T09:09:12.455Z,99023.17
2023-04-30T09:12:18.503Z,99028.09
2023-04-30T09:13:15.756Z,99030.14
2023-04-30T09:14:23.577Z,99030.79
2023-04-30T09:15:19.971Z,99032.59
2023-04-30T09:16:20.517Z,99041.59
2023-04-30T09:17:22.836Z,99038.17
2023-04-30T09:18:20.047Z,99041.47
2023-04-30T09:19:23.635Z,99045.27
2023-04-30T09:20:20.232Z,99046.12
2023-04-30T09:22:24.538Z,99044.03
2023-04-30T09:23:24.966Z,99052.05
2023-04-30T09:24:24.683Z,99049.58
2023-04-30T09:26:32.968Z,99045.03
2023-04-30T09:27:29.595Z,99047.97
2023-04-30T09:28:29.375Z,99048.69
2023-04-30T09:29:38.150Z,99050.25
2023-04-30T09:30:34.384Z,99048.48
2023-04-30T09:31:35.206Z,99053.42
2023-04-30T09:32:34.393Z,99055.35
2023-04-30T09:34:36.997Z,99053.84
2023-04-30T09:35:37.651Z,99051.91
2023-04-30T09:36:36.854Z,99057.24
2023-04-30T09:37:37.602Z,99058.86
2023-04-30T09:38:36.834Z,99057.23
2023-04-30T09:40:41.775Z,99057.94
2023-04-30T09:41:41.283Z,99057.73
2023-04-30T09:42:40.895Z,99063.64
2023-04-30T09:43:44.690Z,99060.94
2023-04-30T09:44:41.068Z,99058.96
2023-04-30T09:45:44.489Z,99070.39
2023-04-30T09:46:43.876Z,99071.06
2023-04-30T09:47:40.970Z,99074.26
2023-04-30T09:48:41.827Z,99075.54
2023-04-30T09:49:41.449Z,99073.23
2023-04-30T09:50:43.301Z,99076.03
2023-04-30T09:52:53.748Z,99092.64
2023-04-30T09:53:45.238Z,99093.2
2023-04-30T09:54:45.760Z,99093.8
2023-04-30T09:55:46.392Z,99091.44
2023-04-30T09:56:45.231Z,99090.95
2023-04-30T09:57:45.255Z,99097.56
2023-04-30T09:58:49.257Z,99099.64
2023-04-30T09:59:46.424Z,99103.53
2023-04-30T10:00:46.010Z,99097.83
2023-04-30T10:01:45.722Z,99104.16
2023-04-30T10:02:45.579Z,99095.48
2023-04-30T10:03:45.609Z,99100.48
2023-04-30T10:04:48.980Z,99100.02
2023-04-30T10:05:47.515Z,99096.03
2023-04-30T10:06:46.620Z,99104.95
2023-04-30T10:07:46.342Z,99102.77
2023-04-30T10:08:47.678Z,99100.06
2023-04-30T10:10:52.926Z,99102.75
2023-04-30T10:11:50.478Z,99102.18
2023-04-30T10:12:51.019Z,99101.23
2023-04-30T10:14:57.267Z,99093.89
2023-04-30T10:15:57.472Z,99097.12
2023-04-30T10:18:02.704Z,99098.73
2023-04-30T10:19:02.928Z,99097.95
2023-04-30T10:20:03.466Z,99097.38
2023-04-30T10:21:02.941Z,99097.72
2023-04-30T10:22:00.557Z,99094.23
2023-04-30T10:23:00.164Z,99111.91
2023-04-30T10:24:00.678Z,99108.38
2023-04-30T10:25:00.890Z,99101.47
2023-04-30T10:26:00.334Z,99106.62
2023-04-30T10:27:00.400Z,99101.52
2023-04-30T10:28:02.003Z,99093.69
2023-04-30T10:29:00.387Z,99092.5
2023-04-30T10:30:00.550Z,99091.95
2023-04-30T10:31:00.948Z,99094.39
2023-04-30T10:32:00.678Z,99100.68
2023-04-30T10:36:06.585Z,99109.12
2023-04-30T10:38:07.651Z,99119.42
2023-04-30T10:39:04.710Z,99120.13
2023-04-30T10:40:05.378Z,99114.48
2023-04-30T10:41:06.669Z,99115.16
2023-04-30T10:42:05.729Z,99114.48
2023-04-30T10:43:04.695Z,99113.95
2023-04-30T10:44:04.709Z,99112.91
2023-04-30T10:45:05.030Z,99109.61
2023-04-30T10:46:04.885Z,99110.55
2023-04-30T10:47:05.892Z,99106.56
2023-04-30T10:48:05.627Z,99106.95
2023-04-30T10:49:04.753Z,99101.81
2023-04-30T10:50:05.075Z,99106.73
2023-04-30T10:51:05.180Z,99116.2
2023-04-30T10:52:04.912Z,99120.73
2023-04-30T10:53:05.310Z,99118.03
2023-04-30T10:54:04.671Z,99119.23
2023-04-30T10:55:08.916Z,99118.09
2023-04-30T10:56:05.841Z,99119.98
2023-04-30T10:59:10.065Z,99109.02
2023-04-30T11:00:19.352Z,99114.19
2023-04-30T11:01:14.749Z,99119.31
2023-04-30T11:02:14.959Z,99125.97
2023-04-30T11:03:11.703Z,99136.48
2023-04-30T11:04:11.687Z,99125.2
2023-04-30T11:05:18.497Z,99130.47
2023-04-30T11:06:15.980Z,99124.09
2023-04-30T11:07:15.668Z,99127.17
2023-04-30T11:08:15.446Z,99127.54
2023-04-30T11:09:15.798Z,99126.97
2023-04-30T11:10:15.653Z,99129.7
2023-04-30T11:11:19.071Z,99134.58
2023-04-30T11:12:19.462Z,99128.52
2023-04-30T11:13:16.171Z,99135.1
2023-04-30T11:14:21.692Z,99133.69
2023-04-30T11:15:19.783Z,99131.59
2023-04-30T11:16:18.588Z,99135.42
2023-04-30T11:17:22.377Z,99134.92
2023-04-30T11:18:19.129Z,99137.82
2023-04-30T11:19:22.392Z,99140.37
2023-04-30T11:20:20.319Z,99141.19
2023-04-30T11:21:20.417Z,99135.5
2023-04-30T11:22:21.464Z,99144.77
2023-04-30T11:24:21.916Z,99146.71
2023-04-30T11:25:22.082Z,99149.91
2023-04-30T11:26:21.956Z,99139.61
2023-04-30T11:27:28.672Z,99143.62
2023-04-30T11:28:26.287Z,99145.53
2023-04-30T11:29:25.595Z,99147.38
2023-04-30T11:30:26.124Z,99148.53
2023-04-30T11:31:32.718Z,99146
2023-04-30T11:32:32.931Z,99147.61
2023-04-30T11:33:30.413Z,99148.78
2023-04-30T11:34:30.434Z,99150.78
2023-04-30T11:35:29.650Z,99153.77
2023-04-30T11:36:30.582Z,99150.66
2023-04-30T11:37:31.351Z,99143.78
2023-04-30T11:38:36.310Z,99152.48
2023-04-30T11:39:35.307Z,99160.7
2023-04-30T11:40:35.347Z,99154.06
2023-04-30T11:41:40.330Z,99161.62
2023-04-30T11:42:37.915Z,99150.27
2023-04-30T11:43:37.054Z,99154.94
2023-04-30T11:44:37.110Z,99156.64
2023-04-30T11:45:37.211Z,99157.85
2023-04-30T11:46:37.105Z,99154.8
2023-04-30T11:47:49.581Z,99151.3
2023-04-30T11:48:43.760Z,99166.38
2023-04-30T11:49:42.441Z,99171.28
2023-04-30T11:50:42.340Z,99169.63
2023-04-30T11:51:41.401Z,99171.55
2023-04-30T11:52:42.145Z,99170.84
2023-04-30T11:53:41.606Z,99177.17
2023-04-30T11:54:41.424Z,99176.02
2023-04-30T11:55:41.417Z,99175.28
2023-04-30T11:56:45.748Z,99173.93
2023-04-30T11:57:43.381Z,99182.09
2023-04-30T11:58:42.417Z,99172.88
2023-04-30T11:59:42.492Z,99172.09
2023-04-30T12:00:42.459Z,99171.28
2023-04-30T12:01:42.935Z,99181.27
2023-04-30T12:02:43.575Z,99176.25
2023-04-30T12:03:46.620Z,99190.23
2023-04-30T12:04:43.815Z,99169.67
2023-04-30T12:05:43.453Z,99180.5
2023-04-30T12:06:43.604Z,99168.91
2023-04-30T12:07:47.375Z,99184.41
2023-04-30T12:08:44.068Z,99183.92
2023-04-30T12:09:53.636Z,99186.06
2023-04-30T12:10:45.462Z,99189.95
2023-04-30T12:11:47.520Z,99181
2023-04-30T12:12:45.756Z,99183.61
2023-04-30T12:13:50.427Z,99176.53
2023-04-30T12:14:47.155Z,99172.78
2023-04-30T12:15:57.337Z,99186.46
2023-04-30T12:16:50.533Z,99183.93
2023-04-30T12:17:49.143Z,99192.62
2023-04-30T12:18:50.183Z,99191.28
2023-04-30T12:19:49.085Z,99201.38
2023-04-30T12:20:49.685Z,99187.88
2023-04-30T12:21:49.509Z,99180.46
2023-04-30T12:22:49.702Z,99181.16
2023-04-30T12:23:49.299Z,99190.12
2023-04-30T12:24:49.532Z,99189.56
2023-04-30T12:25:49.188Z,99186.88
2023-04-30T12:26:53.113Z,99196.81
2023-04-30T12:27:50.967Z,99192.5
2023-04-30T12:28:49.993Z,99191.42
2023-04-30T12:29:50.016Z,99188.29
2023-04-30T12:30:49.920Z,99188.19
2023-04-30T12:31:50.016Z,99194.27
2023-04-30T12:32:51.794Z,99190.44
2023-04-30T12:33:55.848Z,99203.81